createdAt,value
2023-08-29T00:00:58.540Z,29.60
2023-08-29T00:03:28.497Z,30.20
2023-08-29T00:06:02.227Z,27.90
2023-08-29T00:08:29.448Z,29.30
2023-08-29T00:10:57.208Z,28.20
2023-08-29T00:13:24.625Z,27.90
2023-08-29T00:15:52.005Z,26.10
2023-08-29T00:18:21.864Z,29.60
2023-08-29T00:20:51.882Z,30.90
2023-08-29T00:23:18.666Z,25.70
2023-08-29T00:25:46.845Z,32.60
2023-08-29T00:28:14.028Z,26.70
2023-08-29T00:30:44.157Z,28.50
2023-08-29T00:33:11.960Z,27.80
2023-08-29T00:35:39.557Z,28.10
2023-08-29T00:38:06.898Z,32.10
2023-08-29T00:40:33.886Z,30.80
2023-08-29T00:43:01.246Z,33.60
2023-08-29T00:47:57.140Z,42.30
2023-08-29T00:50:24.743Z,40.80
2023-08-29T00:52:51.414Z,40.30
2023-08-29T00:55:18.160Z,45.20
2023-08-29T00:57:44.871Z,39.50
2023-08-29T01:00:13.321Z,40.90
2023-08-29T01:05:07.910Z,34.20
2023-08-29T01:07:35.200Z,41.00
2023-08-29T01:10:02.030Z,35.30
2023-08-29T01:12:59.057Z,34.90
2023-08-29T01:15:27.834Z,35.80
2023-08-29T01:18:01.077Z,37.10
2023-08-29T01:20:30.415Z,38.60
2023-08-29T01:23:14.943Z,38.10
2023-08-29T01:25:48.056Z,42.20
2023-08-29T01:28:14.729Z,40.10
2023-08-29T01:30:41.841Z,37.70
2023-08-29T01:33:09.897Z,40.30
2023-08-29T01:35:47.499Z,39.50
2023-08-29T01:38:17.947Z,38.80
2023-08-29T01:40:45.444Z,40.50
2023-08-29T01:43:12.105Z,39.10
2023-08-29T01:45:39.073Z,40.40
2023-08-29T01:48:06.628Z,45.00
2023-08-29T01:50:33.695Z,49.20
2023-08-29T01:53:00.934Z,45.80
2023-08-29T01:55:28.462Z,38.10
2023-08-29T01:57:55.258Z,44.10
2023-08-29T02:00:24.985Z,47.90
2023-08-29T02:02:51.792Z,44.00
2023-08-29T02:05:18.530Z,44.60
2023-08-29T02:07:45.264Z,55.50
2023-08-29T02:10:12.005Z,46.00
2023-08-29T02:12:38.823Z,53.10
2023-08-29T02:15:07.030Z,45.60
2023-08-29T02:20:00.764Z,61.70
2023-08-29T02:22:27.358Z,56.50
2023-08-29T02:24:54.085Z,47.70
2023-08-29T02:27:20.831Z,51.70
2023-08-29T02:29:47.722Z,56.70
2023-08-29T02:32:15.434Z,54.70
2023-08-29T02:34:42.279Z,56.40
2023-08-29T02:37:09.006Z,48.80
2023-08-29T02:39:35.697Z,52.40
2023-08-29T02:42:04.147Z,58.20
2023-08-29T02:44:30.905Z,51.00
2023-08-29T02:46:57.530Z,58.30
2023-08-29T02:49:24.167Z,57.70
2023-08-29T02:51:50.918Z,55.80
2023-08-29T02:54:18.864Z,55.60
2023-08-29T02:56:45.471Z,60.70
2023-08-29T02:59:12.262Z,55.20
2023-08-29T03:01:38.978Z,54.30
2023-08-29T03:04:05.732Z,58.60
2023-08-29T03:06:32.591Z,60.00
2023-08-29T03:08:59.545Z,70.50
2023-08-29T03:11:27.191Z,59.90
2023-08-29T03:13:54.090Z,58.80
2023-08-29T03:16:21.812Z,66.80
2023-08-29T03:18:48.482Z,58.80
2023-08-29T03:21:15.236Z,64.90
2023-08-29T03:23:41.903Z,72.70
2023-08-29T03:26:11.284Z,78.90
2023-08-29T03:28:38.629Z,71.20
2023-08-29T03:31:09.581Z,80.40
2023-08-29T03:33:36.917Z,70.70
2023-08-29T03:36:04.159Z,92.10
2023-08-29T03:38:30.914Z,74.80
2023-08-29T03:40:58.181Z,51.40
2023-08-29T03:43:28.180Z,56.90
2023-08-29T03:45:58.861Z,55.80
2023-08-29T03:48:29.047Z,62.20
2023-08-29T03:50:56.894Z,55.50
2023-08-29T03:53:23.606Z,60.10
2023-08-29T03:55:50.851Z,62.20
2023-08-29T03:58:17.509Z,51.80
2023-08-29T04:00:45.177Z,43.30
2023-08-29T04:03:12.310Z,38.40
2023-08-29T04:05:39.502Z,38.40
2023-08-29T04:08:06.766Z,44.90
2023-08-29T04:10:39.024Z,40.60
2023-08-29T04:13:06.813Z,55.70
2023-08-29T04:15:34.478Z,49.40
2023-08-29T04:18:02.176Z,57.90
2023-08-29T04:20:30.156Z,57.30
2023-08-29T04:22:57.735Z,49.20
2023-08-29T04:25:26.746Z,46.20
2023-08-29T04:27:53.936Z,44.50
2023-08-29T04:30:21.200Z,40.20
2023-08-29T04:32:51.572Z,40.40
2023-08-29T04:35:18.726Z,35.00
2023-08-29T04:37:51.903Z,44.20
2023-08-29T04:40:19.011Z,37.70
2023-08-29T04:42:45.979Z,42.10
2023-08-29T04:45:13.669Z,34.60
2023-08-29T04:47:41.350Z,38.20
2023-08-29T04:50:08.570Z,34.10
2023-08-29T04:52:35.918Z,40.00
2023-08-29T04:55:03.494Z,64.30
2023-08-29T04:57:30.461Z,54.50
2023-08-29T04:59:57.286Z,52.30
2023-08-29T05:02:24.244Z,35.50
2023-08-29T05:04:53.182Z,34.70
2023-08-29T05:07:19.947Z,28.50
2023-08-29T05:09:47.598Z,25.70
2023-08-29T05:12:14.213Z,29.40
2023-08-29T05:14:40.984Z,32.30
2023-08-29T05:17:10.784Z,38.90
2023-08-29T05:19:37.749Z,48.30
2023-08-29T05:22:04.673Z,59.50
2023-08-29T05:24:31.700Z,77.10
2023-08-29T05:26:58.376Z,75.40
2023-08-29T05:29:25.293Z,76.00
2023-08-29T05:31:51.899Z,75.70
2023-08-29T05:34:18.695Z,65.30
2023-08-29T05:36:47.571Z,71.80
2023-08-29T05:39:14.729Z,91.90
2023-08-29T05:41:41.498Z,79.00
2023-08-29T05:44:08.201Z,70.00
2023-08-29T05:46:35.206Z,50.10
2023-08-29T05:49:02.120Z,48.50
2023-08-29T05:51:29.170Z,44.00
2023-08-29T05:53:55.827Z,40.80
2023-08-29T05:56:22.566Z,31.60
2023-08-29T05:58:49.245Z,31.30
2023-08-29T06:01:16.032Z,37.50
2023-08-29T06:03:42.970Z,29.50
2023-08-29T06:06:10.372Z,24.40
2023-08-29T06:08:37.162Z,32.00
2023-08-29T06:11:04.282Z,25.20
2023-08-29T06:13:31.234Z,31.30
2023-08-29T06:15:58.059Z,25.10
2023-08-29T06:18:24.813Z,23.20
2023-08-29T06:20:51.556Z,23.00
2023-08-29T06:23:18.691Z,20.70
2023-08-29T06:25:45.459Z,24.10
2023-08-29T06:28:12.202Z,30.00
2023-08-29T06:30:39.136Z,25.60
2023-08-29T06:33:07.114Z,27.90
2023-08-29T06:35:38.755Z,23.90
2023-08-29T06:38:05.807Z,19.10
2023-08-29T06:40:33.590Z,19.60
2023-08-29T06:43:00.420Z,20.10
2023-08-29T06:45:27.163Z,20.50
2023-08-29T06:47:54.341Z,21.40
2023-08-29T06:50:21.149Z,28.30
2023-08-29T06:52:47.954Z,20.80
2023-08-29T06:55:15.435Z,20.30
2023-08-29T06:57:42.075Z,17.30
2023-08-29T07:00:11.378Z,20.40
2023-08-29T07:02:38.251Z,17.20
2023-08-29T07:05:05.517Z,18.80
2023-08-29T07:07:32.514Z,19.90
2023-08-29T07:09:59.554Z,20.50
2023-08-29T07:12:26.334Z,17.90
2023-08-29T07:14:53.171Z,45.50
2023-08-29T07:17:20.112Z,23.90
2023-08-29T07:19:46.794Z,18.50
2023-08-29T07:24:44.306Z,22.50
2023-08-29T07:27:11.574Z,17.10
2023-08-29T07:29:38.464Z,16.40
2023-08-29T07:32:05.660Z,21.10
2023-08-29T07:36:59.108Z,20.00
2023-08-29T07:39:25.954Z,18.20
2023-08-29T07:41:52.626Z,19.40
2023-08-29T07:44:19.517Z,20.70
2023-08-29T07:47:03.118Z,14.90
2023-08-29T07:49:32.974Z,22.10
2023-08-29T07:51:59.760Z,17.90
2023-08-29T07:54:26.607Z,22.00
2023-08-29T07:56:53.803Z,17.40
2023-08-29T07:59:21.274Z,16.60
2023-08-29T08:01:49.211Z,23.40
2023-08-29T08:04:16.002Z,17.50
2023-08-29T08:06:42.742Z,22.00
2023-08-29T08:09:09.652Z,47.60
2023-08-29T08:11:36.292Z,24.30
2023-08-29T08:14:03.753Z,93.60
2023-08-29T08:16:30.648Z,20.00
2023-08-29T08:18:57.569Z,21.90
2023-08-29T08:21:24.326Z,43.80
2023-08-29T08:23:51.175Z,15.20
2023-08-29T08:26:18.009Z,22.20
2023-08-29T08:28:44.750Z,25.30
2023-08-29T08:31:11.803Z,22.10
2023-08-29T08:33:41.334Z,19.40
2023-08-29T08:36:08.360Z,13.90
2023-08-29T08:41:01.932Z,15.50
2023-08-29T08:43:29.783Z,18.10
2023-08-29T08:45:56.790Z,19.10
2023-08-29T08:48:23.685Z,15.50
2023-08-29T08:50:50.787Z,22.30
2023-08-29T08:53:23.322Z,13.60
2023-08-29T08:55:50.200Z,15.30
2023-08-29T08:58:18.606Z,21.30
2023-08-29T09:00:45.333Z,16.50
2023-08-29T09:05:42.586Z,22.70
2023-08-29T09:08:09.338Z,18.60
2023-08-29T09:10:39.874Z,18.00
2023-08-29T09:13:06.658Z,14.60
2023-08-29T09:15:35.217Z,18.60
2023-08-29T09:18:02.078Z,13.50
2023-08-29T09:20:29.804Z,17.10
2023-08-29T09:22:56.636Z,20.90
2023-08-29T09:25:26.055Z,18.20
2023-08-29T09:27:53.712Z,14.20
2023-08-29T09:30:20.606Z,22.90
2023-08-29T09:32:48.789Z,12.60
2023-08-29T09:35:16.839Z,12.60
2023-08-29T09:37:51.437Z,16.80
2023-08-29T09:40:36.352Z,12.70
2023-08-29T09:43:05.190Z,15.90
2023-08-29T09:45:32.289Z,17.30
2023-08-29T09:48:02.964Z,11.80
2023-08-29T09:50:30.655Z,20.00
2023-08-29T09:52:57.591Z,19.10
2023-08-29T09:55:24.613Z,17.10
2023-08-29T10:00:20.708Z,14.00
2023-08-29T10:02:47.805Z,25.20
2023-08-29T10:05:15.250Z,14.50
2023-08-29T10:07:47.351Z,17.20
2023-08-29T10:10:14.074Z,16.60
2023-08-29T10:12:41.027Z,27.60
2023-08-29T10:15:08.753Z,12.40
2023-08-29T10:23:08.830Z,15.50
2023-08-29T10:25:36.323Z,18.00
2023-08-29T10:28:03.911Z,20.00
2023-08-29T10:30:31.078Z,30.50
2023-08-29T10:32:58.018Z,18.60
2023-08-29T10:35:24.907Z,15.10
2023-08-29T10:37:54.588Z,15.00
2023-08-29T10:40:24.599Z,14.50
2023-08-29T10:42:56.167Z,29.40
2023-08-29T10:45:43.426Z,11.80
2023-08-29T10:48:15.901Z,13.30
2023-08-29T10:51:04.289Z,12.30
2023-08-29T10:53:32.356Z,14.00
2023-08-29T10:56:04.528Z,13.10
2023-08-29T10:58:41.141Z,18.40
2023-08-29T11:01:28.669Z,13.80
2023-08-29T11:03:56.192Z,15.70
2023-08-29T11:06:27.275Z,17.20
2023-08-29T11:09:17.528Z,19.10
2023-08-29T11:11:44.370Z,14.70
2023-08-29T11:14:11.182Z,18.40
2023-08-29T11:19:12.949Z,20.70
2023-08-29T11:21:40.760Z,18.30
2023-08-29T11:26:41.160Z,17.50
2023-08-29T11:29:08.410Z,14.60
2023-08-29T11:31:53.240Z,15.60
2023-08-29T11:34:21.616Z,14.00
2023-08-29T11:36:49.497Z,21.10
2023-08-29T11:39:19.220Z,15.60
2023-08-29T11:42:07.530Z,17.50
2023-08-29T11:44:59.685Z,16.90
2023-08-29T11:47:21.303Z,15.20
2023-08-29T11:49:50.962Z,27.40
2023-08-29T11:52:21.053Z,124.50
2023-08-29T11:57:16.175Z,26.30
2023-08-29T11:59:43.944Z,29.00
2023-08-29T12:02:17.753Z,12.50
2023-08-29T12:04:47.562Z,17.40
2023-08-29T12:07:15.417Z,12.30
2023-08-29T12:09:43.671Z,12.50
2023-08-29T12:12:34.927Z,15.60
2023-08-29T12:15:41.899Z,14.70
2023-08-29T12:18:21.141Z,12.00
2023-08-29T12:20:48.407Z,14.50
2023-08-29T12:23:30.215Z,14.10
2023-08-29T12:26:01.791Z,22.00
2023-08-29T12:28:28.755Z,12.40
2023-08-29T12:30:57.182Z,19.80
2023-08-29T12:33:24.221Z,19.10
2023-08-29T12:35:51.176Z,17.20
2023-08-29T12:40:46.000Z,13.70
2023-08-29T12:43:13.640Z,21.00
2023-08-29T12:45:52.719Z,11.40
2023-08-29T12:48:23.854Z,36.90
2023-08-29T12:50:50.634Z,27.80
2023-08-29T12:53:17.695Z,12.10
2023-08-29T13:00:38.827Z,16.90
2023-08-29T13:03:06.873Z,18.30
2023-08-29T13:05:33.993Z,17.50
2023-08-29T13:10:29.291Z,23.00
2023-08-29T13:12:56.022Z,20.20
2023-08-29T13:15:24.004Z,16.20
2023-08-29T13:17:53.755Z,47.50
2023-08-29T13:30:09.036Z,16.30
2023-08-29T13:32:35.811Z,15.50
2023-08-29T13:35:03.875Z,16.70
2023-08-29T13:37:30.738Z,18.90
2023-08-29T13:39:57.433Z,15.80
2023-08-29T13:42:24.513Z,23.00
2023-08-29T13:44:55.212Z,16.30
2023-08-29T13:47:22.849Z,18.40
2023-08-29T13:49:49.657Z,17.10
2023-08-29T13:52:16.565Z,12.40
2023-08-29T13:54:43.272Z,17.40
2023-08-29T13:57:09.934Z,16.10
2023-08-29T13:59:36.591Z,19.10
2023-08-29T14:02:03.709Z,15.90
2023-08-29T14:06:57.286Z,14.60
2023-08-29T14:09:24.025Z,15.70
2023-08-29T14:11:50.801Z,19.10
2023-08-29T14:14:17.793Z,14.90
2023-08-29T14:16:44.782Z,12.70
2023-08-29T14:21:38.191Z,21.50
2023-08-29T14:24:05.208Z,15.40
2023-08-29T14:26:32.046Z,15.00
2023-08-29T14:29:09.005Z,18.80
2023-08-29T14:31:35.681Z,10.80
2023-08-29T14:34:02.609Z,15.40
2023-08-29T14:36:32.697Z,15.40
2023-08-29T14:39:01.676Z,14.20
2023-08-29T14:41:29.027Z,18.00
2023-08-29T14:43:56.311Z,15.10
2023-08-29T14:46:23.393Z,18.70
2023-08-29T14:48:50.268Z,16.80
2023-08-29T14:51:17.214Z,14.70
2023-08-29T14:53:44.164Z,18.70
2023-08-29T14:56:11.030Z,17.50
2023-08-29T14:58:37.734Z,14.50
2023-08-29T15:01:04.714Z,14.20
2023-08-29T15:10:53.949Z,22.80
2023-08-29T15:13:21.795Z,27.90
2023-08-29T15:15:48.703Z,17.80
2023-08-29T15:18:16.488Z,16.00
2023-08-29T15:20:43.392Z,22.30
2023-08-29T15:23:15.855Z,20.30
2023-08-29T15:25:42.962Z,17.50
2023-08-29T15:28:10.723Z,15.00
2023-08-29T15:30:38.812Z,14.70
2023-08-29T15:33:05.789Z,16.00
2023-08-29T15:35:32.575Z,18.00
2023-08-29T15:37:59.408Z,13.70
2023-08-29T15:40:26.245Z,17.70
2023-08-29T15:42:53.069Z,17.70
2023-08-29T15:45:19.786Z,14.00
2023-08-29T15:47:46.759Z,16.30
2023-08-29T15:50:14.654Z,15.90
2023-08-29T15:52:41.488Z,16.30
2023-08-29T15:55:08.712Z,17.90
2023-08-29T16:00:10.009Z,26.90
2023-08-29T16:02:36.984Z,16.40
2023-08-29T16:05:03.916Z,20.40
2023-08-29T16:07:30.968Z,16.80
2023-08-29T16:09:58.354Z,24.90
2023-08-29T16:12:27.105Z,21.60
2023-08-29T16:14:54.148Z,23.80
2023-08-29T16:17:20.915Z,27.50
2023-08-29T16:19:47.699Z,23.90
2023-08-29T16:22:14.426Z,23.60
2023-08-29T16:24:41.289Z,26.70
2023-08-29T16:27:07.900Z,27.70
2023-08-29T16:29:34.932Z,28.10
2023-08-29T16:32:01.762Z,19.70
2023-08-29T16:34:28.655Z,23.10
2023-08-29T16:36:55.333Z,19.60
2023-08-29T16:39:22.048Z,29.30
2023-08-29T16:41:49.701Z,21.30
2023-08-29T16:46:44.821Z,30.50
2023-08-29T16:49:11.732Z,35.40
2023-08-29T16:51:39.267Z,28.50
2023-08-29T16:54:06.361Z,29.20
2023-08-29T16:56:33.176Z,27.90
2023-08-29T16:59:00.017Z,40.50
2023-08-29T17:01:26.823Z,19.80
2023-08-29T17:03:53.552Z,27.20
2023-08-29T17:06:20.378Z,25.60
2023-08-29T17:08:47.667Z,25.30
2023-08-29T17:11:14.792Z,20.10
2023-08-29T17:13:44.392Z,31.20
2023-08-29T17:16:11.359Z,24.50
2023-08-29T17:18:38.074Z,31.00
2023-08-29T17:21:05.124Z,28.60
2023-08-29T17:23:31.821Z,18.50
2023-08-29T17:25:58.736Z,22.30
2023-08-29T17:28:25.584Z,29.20
2023-08-29T17:30:52.421Z,25.50
2023-08-29T17:33:19.724Z,21.40
2023-08-29T17:35:47.438Z,20.90
2023-08-29T17:38:14.251Z,33.80
2023-08-29T17:40:41.253Z,27.10
2023-08-29T17:43:07.958Z,22.30
2023-08-29T17:45:39.118Z,24.50
2023-08-29T17:48:06.404Z,25.40
2023-08-29T17:50:33.571Z,27.20
2023-08-29T17:53:00.318Z,27.00
2023-08-29T17:55:28.178Z,23.00
2023-08-29T17:57:55.418Z,26.50
2023-08-29T18:00:22.612Z,23.60
2023-08-29T18:02:49.687Z,21.20
2023-08-29T18:05:16.599Z,24.90
2023-08-29T18:07:43.633Z,20.10
2023-08-29T18:10:13.646Z,23.20
2023-08-29T18:12:40.828Z,23.70
2023-08-29T18:15:08.275Z,24.20
2023-08-29T18:17:35.260Z,34.60
2023-08-29T18:20:02.510Z,21.30
2023-08-29T18:22:29.591Z,21.70
2023-08-29T18:24:56.408Z,19.80
2023-08-29T18:27:23.740Z,28.60
2023-08-29T18:29:50.788Z,22.30
2023-08-29T18:32:18.105Z,23.40
2023-08-29T18:34:45.110Z,20.50
2023-08-29T18:37:12.168Z,22.90
2023-08-29T18:39:39.064Z,23.40
2023-08-29T18:42:06.485Z,19.20
2023-08-29T18:44:36.833Z,25.10
2023-08-29T18:47:04.815Z,29.40
2023-08-29T18:52:03.075Z,23.70
2023-08-29T18:54:33.300Z,24.60
2023-08-29T18:57:01.162Z,22.80
2023-08-29T18:59:28.132Z,23.60
2023-08-29T19:01:54.950Z,22.10
2023-08-29T19:04:21.715Z,23.20
2023-08-29T19:06:48.347Z,24.40
2023-08-29T19:09:15.084Z,22.80
2023-08-29T19:11:41.888Z,27.90
2023-08-29T19:14:08.653Z,28.40
2023-08-29T19:16:35.646Z,24.70
2023-08-29T19:19:04.578Z,22.50
2023-08-29T19:21:31.462Z,20.70
2023-08-29T19:24:00.634Z,19.30
2023-08-29T19:26:27.716Z,21.40
2023-08-29T19:28:54.620Z,24.20
2023-08-29T19:31:21.545Z,20.60
2023-08-29T19:33:48.191Z,25.30
2023-08-29T19:36:16.740Z,25.30
2023-08-29T19:38:43.614Z,21.20
2023-08-29T19:41:12.719Z,20.70
2023-08-29T19:43:39.513Z,18.00
2023-08-29T19:46:06.160Z,22.10
2023-08-29T19:48:33.320Z,24.50
2023-08-29T19:50:59.920Z,21.90
2023-08-29T19:53:27.072Z,20.10
2023-08-29T19:55:54.260Z,21.50
2023-08-29T19:58:22.035Z,22.00
2023-08-29T20:00:50.402Z,26.50
2023-08-29T20:03:17.941Z,22.10
2023-08-29T20:05:45.075Z,25.40
2023-08-29T20:08:14.653Z,23.90
2023-08-29T20:10:41.810Z,20.20
2023-08-29T20:13:08.651Z,23.70
2023-08-29T20:15:41.108Z,24.00
2023-08-29T20:18:08.434Z,26.20
2023-08-29T20:20:35.481Z,23.30
2023-08-29T20:23:03.227Z,23.60
2023-08-29T20:25:30.313Z,25.20
2023-08-29T20:27:57.159Z,27.50
2023-08-29T20:30:24.674Z,30.60
2023-08-29T20:32:52.289Z,23.70
2023-08-29T20:35:19.128Z,21.80
2023-08-29T20:37:46.166Z,21.90
2023-08-29T20:40:13.027Z,20.50
2023-08-29T20:42:39.966Z,31.10
2023-08-29T20:45:07.482Z,22.60
2023-08-29T20:50:02.978Z,23.40
2023-08-29T20:52:29.960Z,24.50
2023-08-29T20:54:56.714Z,25.30
2023-08-29T20:57:23.512Z,26.40
2023-08-29T20:59:50.325Z,26.70
2023-08-29T21:02:16.962Z,19.60
2023-08-29T21:04:44.272Z,20.20
2023-08-29T21:07:11.317Z,24.70
2023-08-29T21:09:38.243Z,23.30
2023-08-29T21:12:05.605Z,25.80
2023-08-29T21:14:32.375Z,20.80
2023-08-29T21:16:59.303Z,25.10
2023-08-29T21:19:29.125Z,22.60
2023-08-29T21:21:56.479Z,24.00
2023-08-29T21:24:23.130Z,29.70
2023-08-29T21:26:49.888Z,24.90
2023-08-29T21:29:16.625Z,28.40
2023-08-29T21:31:43.358Z,21.50
2023-08-29T21:34:10.190Z,29.40
2023-08-29T21:36:38.770Z,23.70
2023-08-29T21:39:10.302Z,20.70
2023-08-29T21:41:40.617Z,25.40
2023-08-29T21:44:07.797Z,18.60
2023-08-29T21:46:34.542Z,20.90
2023-08-29T21:49:01.177Z,19.60
2023-08-29T21:51:30.961Z,26.00
2023-08-29T21:53:57.639Z,18.50
2023-08-29T21:56:24.764Z,22.30
2023-08-29T21:58:52.408Z,22.90
2023-08-29T22:01:19.410Z,20.40
2023-08-29T22:03:46.160Z,18.40
2023-08-29T22:06:12.930Z,25.80
2023-08-29T22:08:40.100Z,30.10
2023-08-29T22:11:06.900Z,24.80
2023-08-29T22:13:35.227Z,21.60
2023-08-29T22:16:02.245Z,22.60
2023-08-29T22:18:29.830Z,18.70
2023-08-29T22:20:56.649Z,25.30
2023-08-29T22:23:23.270Z,22.00
2023-08-29T22:25:50.065Z,24.30
2023-08-29T22:28:16.766Z,22.70
2023-08-29T22:30:43.510Z,23.00
2023-08-29T22:33:10.177Z,25.10
2023-08-29T22:35:36.919Z,19.40
2023-08-29T22:38:04.573Z,18.90
2023-08-29T22:40:31.653Z,24.60
2023-08-29T22:42:58.316Z,21.90
2023-08-29T22:45:25.288Z,27.60
2023-08-29T22:47:52.139Z,19.40
2023-08-29T22:50:18.944Z,20.70
2023-08-29T22:52:45.536Z,28.70
2023-08-29T22:55:13.365Z,24.00
2023-08-29T22:57:40.632Z,20.40
2023-08-29T23:00:13.090Z,21.70
2023-08-29T23:02:40.301Z,23.20
2023-08-29T23:05:08.121Z,20.20
2023-08-29T23:07:35.102Z,21.40
2023-08-29T23:10:02.269Z,21.60
2023-08-29T23:12:29.133Z,22.60
2023-08-29T23:14:56.898Z,25.00
2023-08-29T23:17:23.659Z,23.10
2023-08-29T23:19:50.788Z,22.50
2023-08-29T23:22:17.372Z,22.20
2023-08-29T23:24:44.196Z,22.80
2023-08-29T23:27:11.647Z,19.30
2023-08-29T23:29:38.504Z,21.20
2023-08-29T23:32:05.961Z,18.50
2023-08-29T23:34:32.731Z,25.90
2023-08-29T23:36:59.536Z,26.00
2023-08-29T23:39:26.186Z,22.90
2023-08-29T23:41:53.526Z,21.10
2023-08-29T23:44:20.092Z,22.30
2023-08-29T23:46:46.745Z,27.50
2023-08-29T23:49:13.517Z,23.50
2023-08-29T23:51:40.112Z,22.50
2023-08-29T23:54:06.785Z,24.40
2023-08-29T23:56:33.397Z,25.60
2023-08-29T23:59:00.179Z,24.60
